sensor_id;sensor_type;location;lat;lon;timestamp;P1;durP1;ratioP1;P2;durP2;ratioP2
78871;SDS011;68247;43.514;1.502;2024-02-21T00:01:21;14.73;;;6.47;;
78871;SDS011;68247;43.514;1.502;2024-02-21T00:03:47;16.65;;;6.05;;
78871;SDS011;68247;43.514;1.502;2024-02-21T00:06:12;13.53;;;5.93;;
78871;SDS011;68247;43.514;1.502;2024-02-21T00:08:38;12.07;;;5.50;;
78871;SDS011;68247;43.514;1.502;2024-02-21T00:11:03;11.70;;;5.50;;
78871;SDS011;68247;43.514;1.502;2024-02-21T00:13:28;10.73;;;4.93;;
78871;SDS011;68247;43.514;1.502;2024-02-21T00:15:54;12.27;;;4.90;;
78871;SDS011;68247;43.514;1.502;2024-02-21T00:18:20;12.97;;;4.80;;
78871;SDS011;68247;43.514;1.502;2024-02-21T00:20:45;12.45;;;5.60;;
78871;SDS011;68247;43.514;1.502;2024-02-21T00:23:10;9.33;;;5.40;;
78871;SDS011;68247;43.514;1.502;2024-02-21T00:25:36;10.65;;;4.95;;
78871;SDS011;68247;43.514;1.502;2024-02-21T00:28:02;10.10;;;6.00;;
78871;SDS011;68247;43.514;1.502;2024-02-21T00:30:27;11.83;;;5.80;;
78871;SDS011;68247;43.514;1.502;2024-02-21T00:32:53;9.60;;;5.30;;
78871;SDS011;68247;43.514;1.502;2024-02-21T00:35:18;10.90;;;5.70;;
78871;SDS011;68247;43.514;1.502;2024-02-21T00:37:44;9.90;;;4.93;;
78871;SDS011;68247;43.514;1.502;2024-02-21T00:40:12;12.73;;;5.53;;
78871;SDS011;68247;43.514;1.502;2024-02-21T00:42:41;9.23;;;5.40;;
78871;SDS011;68247;43.514;1.502;2024-02-21T00:45:06;11.17;;;5.90;;
78871;SDS011;68247;43.514;1.502;2024-02-21T00:47:33;11.73;;;5.85;;
78871;SDS011;68247;43.514;1.502;2024-02-21T00:49:58;11.27;;;5.10;;
78871;SDS011;68247;43.514;1.502;2024-02-21T00:52:24;10.47;;;4.60;;
78871;SDS011;68247;43.514;1.502;2024-02-21T00:54:49;12.57;;;5.33;;
78871;SDS011;68247;43.514;1.502;2024-02-21T00:57:14;9.27;;;4.57;;
78871;SDS011;68247;43.514;1.502;2024-02-21T00:59:40;11.90;;;5.50;;
78871;SDS011;68247;43.514;1.502;2024-02-21T01:02:07;9.65;;;4.53;;
78871;SDS011;68247;43.514;1.502;2024-02-21T01:04:34;10.27;;;4.57;;
78871;SDS011;68247;43.514;1.502;2024-02-21T01:06:59;9.05;;;4.55;;
78871;SDS011;68247;43.514;1.502;2024-02-21T01:09:25;9.80;;;4.90;;
78871;SDS011;68247;43.514;1.502;2024-02-21T01:11:50;9.85;;;4.75;;
78871;SDS011;68247;43.514;1.502;2024-02-21T01:14:16;12.10;;;5.30;;
78871;SDS011;68247;43.514;1.502;2024-02-21T01:16:41;9.97;;;4.80;;
78871;SDS011;68247;43.514;1.502;2024-02-21T01:19:07;11.37;;;5.20;;
78871;SDS011;68247;43.514;1.502;2024-02-21T01:21:32;12.55;;;6.40;;
78871;SDS011;68247;43.514;1.502;2024-02-21T01:23:57;14.90;;;6.80;;
78871;SDS011;68247;43.514;1.502;2024-02-21T01:26:23;15.13;;;7.40;;
78871;SDS011;68247;43.514;1.502;2024-02-21T01:28:48;16.50;;;7.97;;
78871;SDS011;68247;43.514;1.502;2024-02-21T01:31:14;15.67;;;7.93;;
78871;SDS011;68247;43.514;1.502;2024-02-21T01:33:40;15.32;;;8.60;;
78871;SDS011;68247;43.514;1.502;2024-02-21T01:36:06;19.38;;;9.95;;
78871;SDS011;68247;43.514;1.502;2024-02-21T01:38:32;16.03;;;9.80;;
78871;SDS011;68247;43.514;1.502;2024-02-21T01:40:57;19.30;;;10.65;;
78871;SDS011;68247;43.514;1.502;2024-02-21T01:43:23;17.73;;;10.93;;
78871;SDS011;68247;43.514;1.502;2024-02-21T01:45:49;22.10;;;11.43;;
78871;SDS011;68247;43.514;1.502;2024-02-21T01:48:18;19.67;;;10.20;;
78871;SDS011;68247;43.514;1.502;2024-02-21T01:50:45;17.77;;;9.20;;
78871;SDS011;68247;43.514;1.502;2024-02-21T01:53:11;20.55;;;9.82;;
78871;SDS011;68247;43.514;1.502;2024-02-21T01:55:43;16.38;;;9.55;;
78871;SDS011;68247;43.514;1.502;2024-02-21T01:58:14;16.70;;;9.97;;
78871;SDS011;68247;43.514;1.502;2024-02-21T02:00:40;17.20;;;9.98;;
78871;SDS011;68247;43.514;1.502;2024-02-21T02:03:07;17.70;;;10.43;;
78871;SDS011;68247;43.514;1.502;2024-02-21T02:05:35;18.52;;;10.00;;
78871;SDS011;68247;43.514;1.502;2024-02-21T02:08:01;18.17;;;9.27;;
78871;SDS011;68247;43.514;1.502;2024-02-21T02:10:26;17.05;;;9.45;;
78871;SDS011;68247;43.514;1.502;2024-02-21T02:12:52;17.23;;;8.87;;
78871;SDS011;68247;43.514;1.502;2024-02-21T02:15:17;14.75;;;8.63;;
78871;SDS011;68247;43.514;1.502;2024-02-21T02:17:43;15.27;;;8.63;;
78871;SDS011;68247;43.514;1.502;2024-02-21T02:20:08;17.63;;;8.60;;
78871;SDS011;68247;43.514;1.502;2024-02-21T02:22:34;14.25;;;8.40;;
78871;SDS011;68247;43.514;1.502;2024-02-21T02:25:01;15.03;;;8.47;;
78871;SDS011;68247;43.514;1.502;2024-02-21T02:27:27;15.95;;;8.15;;
78871;SDS011;68247;43.514;1.502;2024-02-21T02:29:52;15.43;;;8.60;;
78871;SDS011;68247;43.514;1.502;2024-02-21T02:32:18;13.80;;;8.00;;
78871;SDS011;68247;43.514;1.502;2024-02-21T02:34:43;17.20;;;9.93;;
78871;SDS011;68247;43.514;1.502;2024-02-21T02:37:08;13.93;;;8.03;;
78871;SDS011;68247;43.514;1.502;2024-02-21T02:39:34;17.38;;;8.02;;
78871;SDS011;68247;43.514;1.502;2024-02-21T02:41:59;16.70;;;8.63;;
78871;SDS011;68247;43.514;1.502;2024-02-21T02:44:24;15.30;;;8.00;;
78871;SDS011;68247;43.514;1.502;2024-02-21T02:46:50;17.43;;;8.40;;
78871;SDS011;68247;43.514;1.502;2024-02-21T02:49:15;17.53;;;8.70;;
78871;SDS011;68247;43.514;1.502;2024-02-21T02:51:41;15.43;;;9.05;;
78871;SDS011;68247;43.514;1.502;2024-02-21T02:54:10;17.88;;;9.98;;
78871;SDS011;68247;43.514;1.502;2024-02-21T02:56:36;15.13;;;7.82;;
78871;SDS011;68247;43.514;1.502;2024-02-21T02:59:01;15.23;;;8.82;;
78871;SDS011;68247;43.514;1.502;2024-02-21T03:01:26;15.45;;;8.77;;
78871;SDS011;68247;43.514;1.502;2024-02-21T03:03:52;14.03;;;8.70;;
78871;SDS011;68247;43.514;1.502;2024-02-21T03:06:17;18.20;;;8.80;;
78871;SDS011;68247;43.514;1.502;2024-02-21T03:08:43;18.10;;;9.10;;
78871;SDS011;68247;43.514;1.502;2024-02-21T03:11:08;14.20;;;8.45;;
78871;SDS011;68247;43.514;1.502;2024-02-21T03:13:34;16.27;;;8.60;;
78871;SDS011;68247;43.514;1.502;2024-02-21T03:15:59;13.23;;;6.23;;
78871;SDS011;68247;43.514;1.502;2024-02-21T03:18:24;15.40;;;6.10;;
78871;SDS011;68247;43.514;1.502;2024-02-21T03:20:50;14.00;;;6.80;;
78871;SDS011;68247;43.514;1.502;2024-02-21T03:23:15;19.35;;;9.18;;
78871;SDS011;68247;43.514;1.502;2024-02-21T03:25:41;15.53;;;8.83;;
78871;SDS011;68247;43.514;1.502;2024-02-21T03:28:06;16.77;;;9.03;;
78871;SDS011;68247;43.514;1.502;2024-02-21T03:30:32;13.95;;;8.95;;
78871;SDS011;68247;43.514;1.502;2024-02-21T03:32:58;17.95;;;9.57;;
78871;SDS011;68247;43.514;1.502;2024-02-21T03:35:24;16.03;;;9.90;;
78871;SDS011;68247;43.514;1.502;2024-02-21T03:37:51;17.33;;;10.73;;
78871;SDS011;68247;43.514;1.502;2024-02-21T03:40:17;17.87;;;9.73;;
78871;SDS011;68247;43.514;1.502;2024-02-21T03:42:42;21.70;;;10.03;;
78871;SDS011;68247;43.514;1.502;2024-02-21T03:45:08;16.58;;;9.45;;
78871;SDS011;68247;43.514;1.502;2024-02-21T03:47:34;14.93;;;8.03;;
78871;SDS011;68247;43.514;1.502;2024-02-21T03:49:59;16.23;;;7.60;;
78871;SDS011;68247;43.514;1.502;2024-02-21T03:52:25;15.05;;;6.65;;
78871;SDS011;68247;43.514;1.502;2024-02-21T03:54:50;10.33;;;5.93;;
78871;SDS011;68247;43.514;1.502;2024-02-21T03:57:16;13.98;;;7.30;;
78871;SDS011;68247;43.514;1.502;2024-02-21T03:59:42;13.35;;;6.97;;
78871;SDS011;68247;43.514;1.502;2024-02-21T04:02:08;15.60;;;6.43;;
78871;SDS011;68247;43.514;1.502;2024-02-21T04:04:34;13.73;;;5.77;;
78871;SDS011;68247;43.514;1.502;2024-02-21T04:07:02;10.65;;;5.22;;
78871;SDS011;68247;43.514;1.502;2024-02-21T04:09:31;12.77;;;5.80;;
78871;SDS011;68247;43.514;1.502;2024-02-21T04:11:58;12.32;;;5.65;;
78871;SDS011;68247;43.514;1.502;2024-02-21T04:14:24;11.07;;;5.82;;
78871;SDS011;68247;43.514;1.502;2024-02-21T04:16:50;13.52;;;6.32;;
78871;SDS011;68247;43.514;1.502;2024-02-21T04:19:15;11.73;;;6.60;;
78871;SDS011;68247;43.514;1.502;2024-02-21T04:21:40;14.23;;;6.93;;
78871;SDS011;68247;43.514;1.502;2024-02-21T04:24:06;13.63;;;8.00;;
78871;SDS011;68247;43.514;1.502;2024-02-21T04:26:31;13.32;;;8.00;;
78871;SDS011;68247;43.514;1.502;2024-02-21T04:28:57;16.48;;;10.07;;
78871;SDS011;68247;43.514;1.502;2024-02-21T04:31:22;15.50;;;9.70;;
78871;SDS011;68247;43.514;1.502;2024-02-21T04:33:47;19.13;;;9.13;;
78871;SDS011;68247;43.514;1.502;2024-02-21T04:36:13;15.73;;;9.00;;
78871;SDS011;68247;43.514;1.502;2024-02-21T04:38:38;16.13;;;9.00;;
78871;SDS011;68247;43.514;1.502;2024-02-21T04:41:04;16.25;;;9.05;;
78871;SDS011;68247;43.514;1.502;2024-02-21T04:43:29;17.40;;;9.90;;
78871;SDS011;68247;43.514;1.502;2024-02-21T04:45:55;19.30;;;10.50;;
78871;SDS011;68247;43.514;1.502;2024-02-21T04:48:20;20.00;;;9.80;;
78871;SDS011;68247;43.514;1.502;2024-02-21T04:50:46;17.50;;;9.35;;
78871;SDS011;68247;43.514;1.502;2024-02-21T04:53:11;17.07;;;8.40;;
78871;SDS011;68247;43.514;1.502;2024-02-21T04:55:36;13.37;;;7.93;;
78871;SDS011;68247;43.514;1.502;2024-02-21T04:58:02;18.92;;;8.77;;
78871;SDS011;68247;43.514;1.502;2024-02-21T05:00:27;18.97;;;8.53;;
78871;SDS011;68247;43.514;1.502;2024-02-21T05:02:53;16.10;;;8.37;;
78871;SDS011;68247;43.514;1.502;2024-02-21T05:05:18;14.67;;;8.60;;
78871;SDS011;68247;43.514;1.502;2024-02-21T05:07:44;18.60;;;8.63;;
78871;SDS011;68247;43.514;1.502;2024-02-21T05:10:09;15.65;;;8.35;;
78871;SDS011;68247;43.514;1.502;2024-02-21T05:12:34;16.90;;;8.73;;
78871;SDS011;68247;43.514;1.502;2024-02-21T05:15:00;20.63;;;9.70;;
78871;SDS011;68247;43.514;1.502;2024-02-21T05:17:26;19.63;;;9.70;;
78871;SDS011;68247;43.514;1.502;2024-02-21T05:19:51;17.23;;;8.97;;
78871;SDS011;68247;43.514;1.502;2024-02-21T05:22:17;13.53;;;7.53;;
78871;SDS011;68247;43.514;1.502;2024-02-21T05:24:42;12.15;;;7.47;;
78871;SDS011;68247;43.514;1.502;2024-02-21T05:27:07;14.68;;;7.43;;
78871;SDS011;68247;43.514;1.502;2024-02-21T05:29:33;12.30;;;6.47;;
78871;SDS011;68247;43.514;1.502;2024-02-21T05:31:59;11.23;;;5.88;;
78871;SDS011;68247;43.514;1.502;2024-02-21T05:34:24;11.32;;;5.38;;
78871;SDS011;68247;43.514;1.502;2024-02-21T05:36:50;11.00;;;5.53;;
78871;SDS011;68247;43.514;1.502;2024-02-21T05:39:17;10.32;;;5.47;;
78871;SDS011;68247;43.514;1.502;2024-02-21T05:41:42;13.98;;;6.15;;
78871;SDS011;68247;43.514;1.502;2024-02-21T05:44:08;15.90;;;6.33;;
78871;SDS011;68247;43.514;1.502;2024-02-21T05:46:33;11.07;;;5.67;;
78871;SDS011;68247;43.514;1.502;2024-02-21T05:48:58;9.90;;;5.70;;
78871;SDS011;68247;43.514;1.502;2024-02-21T05:51:24;14.38;;;6.70;;
78871;SDS011;68247;43.514;1.502;2024-02-21T05:53:49;12.40;;;6.40;;
78871;SDS011;68247;43.514;1.502;2024-02-21T05:56:14;12.57;;;6.83;;
78871;SDS011;68247;43.514;1.502;2024-02-21T05:58:40;13.63;;;6.93;;
78871;SDS011;68247;43.514;1.502;2024-02-21T06:01:06;13.30;;;7.03;;
78871;SDS011;68247;43.514;1.502;2024-02-21T06:03:32;15.15;;;7.50;;
78871;SDS011;68247;43.514;1.502;2024-02-21T06:05:59;17.70;;;8.73;;
78871;SDS011;68247;43.514;1.502;2024-02-21T06:08:25;21.75;;;11.80;;
78871;SDS011;68247;43.514;1.502;2024-02-21T06:10:50;18.33;;;9.83;;
78871;SDS011;68247;43.514;1.502;2024-02-21T06:13:25;18.73;;;9.95;;
78871;SDS011;68247;43.514;1.502;2024-02-21T06:15:51;17.38;;;9.23;;
78871;SDS011;68247;43.514;1.502;2024-02-21T06:18:19;16.07;;;9.70;;
78871;SDS011;68247;43.514;1.502;2024-02-21T06:20:45;17.13;;;9.43;;
78871;SDS011;68247;43.514;1.502;2024-02-21T06:23:11;20.52;;;10.48;;
78871;SDS011;68247;43.514;1.502;2024-02-21T06:25:37;21.70;;;10.77;;
78871;SDS011;68247;43.514;1.502;2024-02-21T06:28:03;16.92;;;9.45;;
78871;SDS011;68247;43.514;1.502;2024-02-21T06:30:28;20.15;;;9.90;;
78871;SDS011;68247;43.514;1.502;2024-02-21T06:32:54;20.40;;;10.53;;
78871;SDS011;68247;43.514;1.502;2024-02-21T06:35:22;20.23;;;10.25;;
78871;SDS011;68247;43.514;1.502;2024-02-21T06:37:51;12.97;;;7.73;;
78871;SDS011;68247;43.514;1.502;2024-02-21T06:40:22;17.17;;;8.32;;
78871;SDS011;68247;43.514;1.502;2024-02-21T06:42:48;19.00;;;8.07;;
78871;SDS011;68247;43.514;1.502;2024-02-21T06:45:14;14.85;;;8.23;;
78871;SDS011;68247;43.514;1.502;2024-02-21T06:47:40;17.13;;;8.87;;
78871;SDS011;68247;43.514;1.502;2024-02-21T06:50:05;19.05;;;8.90;;
78871;SDS011;68247;43.514;1.502;2024-02-21T06:52:31;15.38;;;8.88;;
78871;SDS011;68247;43.514;1.502;2024-02-21T06:54:56;14.83;;;7.80;;
78871;SDS011;68247;43.514;1.502;2024-02-21T06:57:22;13.37;;;8.00;;
78871;SDS011;68247;43.514;1.502;2024-02-21T06:59:48;13.48;;;7.05;;
78871;SDS011;68247;43.514;1.502;2024-02-21T07:02:13;13.27;;;6.40;;
78871;SDS011;68247;43.514;1.502;2024-02-21T07:04:38;13.03;;;6.40;;
78871;SDS011;68247;43.514;1.502;2024-02-21T07:07:04;16.30;;;8.30;;
78871;SDS011;68247;43.514;1.502;2024-02-21T07:09:29;13.07;;;7.70;;
78871;SDS011;68247;43.514;1.502;2024-02-21T07:11:57;15.90;;;8.27;;
78871;SDS011;68247;43.514;1.502;2024-02-21T07:14:25;18.00;;;8.50;;
78871;SDS011;68247;43.514;1.502;2024-02-21T07:16:51;18.35;;;8.73;;
78871;SDS011;68247;43.514;1.502;2024-02-21T07:19:16;15.40;;;8.13;;
78871;SDS011;68247;43.514;1.502;2024-02-21T07:21:42;15.23;;;7.90;;
78871;SDS011;68247;43.514;1.502;2024-02-21T07:24:07;13.90;;;7.53;;
78871;SDS011;68247;43.514;1.502;2024-02-21T07:26:33;13.00;;;8.30;;
78871;SDS011;68247;43.514;1.502;2024-02-21T07:28:59;18.17;;;8.47;;
78871;SDS011;68247;43.514;1.502;2024-02-21T07:31:24;18.65;;;9.40;;
78871;SDS011;68247;43.514;1.502;2024-02-21T07:33:49;14.83;;;8.00;;
78871;SDS011;68247;43.514;1.502;2024-02-21T07:36:15;16.17;;;8.40;;
78871;SDS011;68247;43.514;1.502;2024-02-21T07:38:41;16.77;;;8.40;;
78871;SDS011;68247;43.514;1.502;2024-02-21T07:41:06;13.43;;;7.97;;
78871;SDS011;68247;43.514;1.502;2024-02-21T07:43:32;15.53;;;8.10;;
78871;SDS011;68247;43.514;1.502;2024-02-21T07:45:57;14.40;;;8.43;;
78871;SDS011;68247;43.514;1.502;2024-02-21T07:48:23;14.40;;;8.20;;
78871;SDS011;68247;43.514;1.502;2024-02-21T07:50:51;14.88;;;7.78;;
78871;SDS011;68247;43.514;1.502;2024-02-21T07:53:17;15.40;;;8.10;;
78871;SDS011;68247;43.514;1.502;2024-02-21T07:55:42;13.03;;;7.00;;
78871;SDS011;68247;43.514;1.502;2024-02-21T07:58:08;16.73;;;8.35;;
78871;SDS011;68247;43.514;1.502;2024-02-21T08:00:33;15.77;;;7.63;;
78871;SDS011;68247;43.514;1.502;2024-02-21T08:02:59;12.87;;;8.20;;
78871;SDS011;68247;43.514;1.502;2024-02-21T08:05:24;14.80;;;9.70;;
78871;SDS011;68247;43.514;1.502;2024-02-21T08:07:49;19.93;;;10.73;;
78871;SDS011;68247;43.514;1.502;2024-02-21T08:10:15;17.08;;;10.18;;
78871;SDS011;68247;43.514;1.502;2024-02-21T08:12:40;19.33;;;10.55;;
78871;SDS011;68247;43.514;1.502;2024-02-21T08:15:06;16.80;;;9.37;;
78871;SDS011;68247;43.514;1.502;2024-02-21T08:17:36;14.75;;;8.15;;
78871;SDS011;68247;43.514;1.502;2024-02-21T08:20:02;13.00;;;7.70;;
78871;SDS011;68247;43.514;1.502;2024-02-21T08:22:29;16.92;;;7.90;;
78871;SDS011;68247;43.514;1.502;2024-02-21T08:24:55;13.30;;;7.80;;
78871;SDS011;68247;43.514;1.502;2024-02-21T08:27:20;14.30;;;7.30;;
78871;SDS011;68247;43.514;1.502;2024-02-21T08:29:45;11.83;;;6.67;;
78871;SDS011;68247;43.514;1.502;2024-02-21T08:32:11;12.20;;;6.63;;
78871;SDS011;68247;43.514;1.502;2024-02-21T08:34:36;12.75;;;7.18;;
78871;SDS011;68247;43.514;1.502;2024-02-21T08:37:01;15.93;;;7.50;;
78871;SDS011;68247;43.514;1.502;2024-02-21T08:39:27;13.80;;;7.50;;
78871;SDS011;68247;43.514;1.502;2024-02-21T08:41:55;13.73;;;7.32;;
78871;SDS011;68247;43.514;1.502;2024-02-21T08:44:22;17.13;;;7.63;;
78871;SDS011;68247;43.514;1.502;2024-02-21T08:46:48;13.45;;;7.55;;
78871;SDS011;68247;43.514;1.502;2024-02-21T08:49:14;15.70;;;8.30;;
78871;SDS011;68247;43.514;1.502;2024-02-21T08:51:39;15.70;;;8.32;;
78871;SDS011;68247;43.514;1.502;2024-02-21T08:54:05;15.43;;;8.43;;
78871;SDS011;68247;43.514;1.502;2024-02-21T08:56:31;13.38;;;7.68;;
78871;SDS011;68247;43.514;1.502;2024-02-21T08:58:56;13.43;;;7.73;;
78871;SDS011;68247;43.514;1.502;2024-02-21T09:01:23;14.15;;;8.70;;
78871;SDS011;68247;43.514;1.502;2024-02-21T09:03:48;16.33;;;9.17;;
78871;SDS011;68247;43.514;1.502;2024-02-21T09:06:17;14.48;;;8.30;;
78871;SDS011;68247;43.514;1.502;2024-02-21T09:08:43;13.50;;;7.50;;
78871;SDS011;68247;43.514;1.502;2024-02-21T09:11:08;13.73;;;7.53;;
78871;SDS011;68247;43.514;1.502;2024-02-21T09:13:34;13.18;;;7.03;;
78871;SDS011;68247;43.514;1.502;2024-02-21T09:15:59;15.37;;;6.93;;
78871;SDS011;68247;43.514;1.502;2024-02-21T09:18:24;12.10;;;6.70;;
78871;SDS011;68247;43.514;1.502;2024-02-21T09:20:50;12.67;;;6.73;;
78871;SDS011;68247;43.514;1.502;2024-02-21T09:23:15;12.80;;;6.40;;
78871;SDS011;68247;43.514;1.502;2024-02-21T09:25:41;10.68;;;6.30;;
78871;SDS011;68247;43.514;1.502;2024-02-21T09:28:07;12.63;;;6.27;;
78871;SDS011;68247;43.514;1.502;2024-02-21T09:30:32;11.70;;;6.10;;
78871;SDS011;68247;43.514;1.502;2024-02-21T09:32:58;10.80;;;5.17;;
78871;SDS011;68247;43.514;1.502;2024-02-21T09:35:24;10.77;;;5.80;;
78871;SDS011;68247;43.514;1.502;2024-02-21T09:37:52;13.13;;;6.10;;
78871;SDS011;68247;43.514;1.502;2024-02-21T09:40:17;9.45;;;4.97;;
78871;SDS011;68247;43.514;1.502;2024-02-21T09:42:43;10.30;;;5.13;;
78871;SDS011;68247;43.514;1.502;2024-02-21T09:50:32;9.93;;;4.70;;
78871;SDS011;68247;43.514;1.502;2024-02-21T09:53:00;8.05;;;4.20;;
78871;SDS011;68247;43.514;1.502;2024-02-21T09:55:27;8.45;;;3.90;;
78871;SDS011;68247;43.514;1.502;2024-02-21T09:57:55;8.68;;;4.38;;
78871;SDS011;68247;43.514;1.502;2024-02-21T10:00:22;6.88;;;3.70;;
78871;SDS011;68247;43.514;1.502;2024-02-21T10:02:48;8.00;;;3.65;;
78871;SDS011;68247;43.514;1.502;2024-02-21T10:05:14;8.02;;;3.70;;
78871;SDS011;68247;43.514;1.502;2024-02-21T10:07:40;9.32;;;3.65;;
78871;SDS011;68247;43.514;1.502;2024-02-21T10:10:06;8.13;;;3.20;;
78871;SDS011;68247;43.514;1.502;2024-02-21T10:12:32;5.50;;;3.13;;
78871;SDS011;68247;43.514;1.502;2024-02-21T10:15:03;8.30;;;3.47;;
78871;SDS011;68247;43.514;1.502;2024-02-21T10:17:30;7.25;;;3.42;;
78871;SDS011;68247;43.514;1.502;2024-02-21T10:20:06;6.05;;;3.05;;
78871;SDS011;68247;43.514;1.502;2024-02-21T10:22:32;8.00;;;2.63;;
78871;SDS011;68247;43.514;1.502;2024-02-21T10:25:07;5.00;;;2.67;;
78871;SDS011;68247;43.514;1.502;2024-02-21T10:27:39;6.70;;;2.58;;
78871;SDS011;68247;43.514;1.502;2024-02-21T10:30:05;6.20;;;2.70;;
78871;SDS011;68247;43.514;1.502;2024-02-21T10:32:32;5.70;;;2.60;;
78871;SDS011;68247;43.514;1.502;2024-02-21T10:35:01;5.97;;;2.73;;
78871;SDS011;68247;43.514;1.502;2024-02-21T10:37:30;6.65;;;2.88;;
78871;SDS011;68247;43.514;1.502;2024-02-21T10:39:56;6.32;;;2.67;;
78871;SDS011;68247;43.514;1.502;2024-02-21T10:42:22;4.13;;;2.37;;
78871;SDS011;68247;43.514;1.502;2024-02-21T10:44:48;5.13;;;2.30;;
78871;SDS011;68247;43.514;1.502;2024-02-21T10:47:16;6.18;;;2.30;;
78871;SDS011;68247;43.514;1.502;2024-02-21T10:49:46;6.90;;;2.53;;
78871;SDS011;68247;43.514;1.502;2024-02-21T10:52:17;7.30;;;2.37;;
78871;SDS011;68247;43.514;1.502;2024-02-21T10:55:03;4.82;;;2.42;;
78871;SDS011;68247;43.514;1.502;2024-02-21T10:57:29;6.00;;;2.60;;
78871;SDS011;68247;43.514;1.502;2024-02-21T10:59:56;6.18;;;2.40;;
78871;SDS011;68247;43.514;1.502;2024-02-21T11:02:24;6.88;;;2.35;;
78871;SDS011;68247;43.514;1.502;2024-02-21T11:04:50;3.67;;;1.90;;
78871;SDS011;68247;43.514;1.502;2024-02-21T11:07:17;4.53;;;1.98;;
78871;SDS011;68247;43.514;1.502;2024-02-21T11:09:50;4.70;;;1.70;;
78871;SDS011;68247;43.514;1.502;2024-02-21T11:12:19;4.47;;;1.93;;
78871;SDS011;68247;43.514;1.502;2024-02-21T11:14:45;4.38;;;1.90;;
78871;SDS011;68247;43.514;1.502;2024-02-21T11:17:15;4.78;;;1.90;;
78871;SDS011;68247;43.514;1.502;2024-02-21T11:19:46;5.07;;;2.00;;
78871;SDS011;68247;43.514;1.502;2024-02-21T11:22:18;7.20;;;2.30;;
78871;SDS011;68247;43.514;1.502;2024-02-21T11:24:44;5.13;;;1.93;;
78871;SDS011;68247;43.514;1.502;2024-02-21T11:27:20;4.15;;;1.67;;
78871;SDS011;68247;43.514;1.502;2024-02-21T11:29:47;5.13;;;1.80;;
78871;SDS011;68247;43.514;1.502;2024-02-21T11:32:16;2.92;;;1.77;;
78871;SDS011;68247;43.514;1.502;2024-02-21T11:34:59;5.55;;;1.88;;
78871;SDS011;68247;43.514;1.502;2024-02-21T11:37:30;5.57;;;1.90;;
78871;SDS011;68247;43.514;1.502;2024-02-21T11:39:58;4.05;;;2.15;;
78871;SDS011;68247;43.514;1.502;2024-02-21T11:42:27;5.20;;;2.47;;
78871;SDS011;68247;43.514;1.502;2024-02-21T11:44:54;4.85;;;2.20;;
78871;SDS011;68247;43.514;1.502;2024-02-21T11:47:22;5.10;;;2.40;;
78871;SDS011;68247;43.514;1.502;2024-02-21T11:49:48;6.43;;;2.00;;
78871;SDS011;68247;43.514;1.502;2024-02-21T11:52:15;3.45;;;2.08;;
78871;SDS011;68247;43.514;1.502;2024-02-21T11:54:41;3.65;;;2.35;;
78871;SDS011;68247;43.514;1.502;2024-02-21T11:57:07;4.00;;;2.03;;
78871;SDS011;68247;43.514;1.502;2024-02-21T11:59:33;7.68;;;2.30;;
78871;SDS011;68247;43.514;1.502;2024-02-21T12:01:59;5.23;;;2.30;;
78871;SDS011;68247;43.514;1.502;2024-02-21T12:04:25;4.38;;;2.42;;
78871;SDS011;68247;43.514;1.502;2024-02-21T12:06:52;5.03;;;2.40;;
78871;SDS011;68247;43.514;1.502;2024-02-21T12:09:18;4.10;;;1.97;;
78871;SDS011;68247;43.514;1.502;2024-02-21T12:11:43;4.63;;;2.20;;
78871;SDS011;68247;43.514;1.502;2024-02-21T12:14:09;6.05;;;2.55;;
78871;SDS011;68247;43.514;1.502;2024-02-21T12:16:35;5.80;;;2.23;;
78871;SDS011;68247;43.514;1.502;2024-02-21T12:19:02;5.78;;;1.70;;
78871;SDS011;68247;43.514;1.502;2024-02-21T12:21:35;4.18;;;1.70;;
78871;SDS011;68247;43.514;1.502;2024-02-21T12:26:39;4.55;;;1.75;;
78871;SDS011;68247;43.514;1.502;2024-02-21T12:29:05;6.70;;;1.70;;
78871;SDS011;68247;43.514;1.502;2024-02-21T12:31:31;4.10;;;1.77;;
78871;SDS011;68247;43.514;1.502;2024-02-21T12:33:56;5.63;;;2.17;;
78871;SDS011;68247;43.514;1.502;2024-02-21T12:36:22;6.53;;;2.00;;
78871;SDS011;68247;43.514;1.502;2024-02-21T12:38:47;6.73;;;1.70;;
78871;SDS011;68247;43.514;1.502;2024-02-21T12:41:14;3.35;;;1.63;;
78871;SDS011;68247;43.514;1.502;2024-02-21T12:43:40;6.20;;;1.88;;
78871;SDS011;68247;43.514;1.502;2024-02-21T12:46:05;3.43;;;2.00;;
78871;SDS011;68247;43.514;1.502;2024-02-21T12:48:32;4.80;;;1.90;;
78871;SDS011;68247;43.514;1.502;2024-02-21T12:50:58;3.93;;;2.00;;
78871;SDS011;68247;43.514;1.502;2024-02-21T12:53:23;4.57;;;2.03;;
78871;SDS011;68247;43.514;1.502;2024-02-21T12:55:49;4.93;;;2.07;;
78871;SDS011;68247;43.514;1.502;2024-02-21T12:58:15;4.40;;;1.80;;
78871;SDS011;68247;43.514;1.502;2024-02-21T13:00:40;5.45;;;2.22;;
78871;SDS011;68247;43.514;1.502;2024-02-21T13:03:06;4.00;;;2.20;;
78871;SDS011;68247;43.514;1.502;2024-02-21T13:05:32;5.45;;;2.60;;
78871;SDS011;68247;43.514;1.502;2024-02-21T13:07:58;5.37;;;2.60;;
78871;SDS011;68247;43.514;1.502;2024-02-21T13:10:24;5.50;;;2.10;;
78871;SDS011;68247;43.514;1.502;2024-02-21T13:12:49;4.47;;;2.40;;
78871;SDS011;68247;43.514;1.502;2024-02-21T13:15:15;4.88;;;2.25;;
78871;SDS011;68247;43.514;1.502;2024-02-21T13:17:42;5.30;;;2.20;;
78871;SDS011;68247;43.514;1.502;2024-02-21T13:20:09;5.32;;;1.98;;
78871;SDS011;68247;43.514;1.502;2024-02-21T13:22:35;8.70;;;2.13;;
78871;SDS011;68247;43.514;1.502;2024-02-21T13:25:01;4.33;;;2.07;;
78871;SDS011;68247;43.514;1.502;2024-02-21T13:27:26;5.25;;;2.40;;
78871;SDS011;68247;43.514;1.502;2024-02-21T13:29:52;5.00;;;2.70;;
78871;SDS011;68247;43.514;1.502;2024-02-21T13:32:18;5.50;;;2.60;;
78871;SDS011;68247;43.514;1.502;2024-02-21T13:34:44;5.97;;;2.80;;
78871;SDS011;68247;43.514;1.502;2024-02-21T13:37:09;5.82;;;2.80;;
78871;SDS011;68247;43.514;1.502;2024-02-21T13:39:35;6.30;;;2.93;;
78871;SDS011;68247;43.514;1.502;2024-02-21T13:42:01;4.20;;;2.08;;
78871;SDS011;68247;43.514;1.502;2024-02-21T13:44:27;3.97;;;2.30;;
78871;SDS011;68247;43.514;1.502;2024-02-21T13:46:52;3.60;;;2.40;;
78871;SDS011;68247;43.514;1.502;2024-02-21T13:49:18;4.40;;;2.50;;
78871;SDS011;68247;43.514;1.502;2024-02-21T13:51:43;5.67;;;2.23;;
78871;SDS011;68247;43.514;1.502;2024-02-21T13:54:10;3.80;;;2.08;;
78871;SDS011;68247;43.514;1.502;2024-02-21T13:56:36;3.65;;;2.38;;
78871;SDS011;68247;43.514;1.502;2024-02-21T13:59:02;6.40;;;2.20;;
78871;SDS011;68247;43.514;1.502;2024-02-21T14:01:27;4.43;;;2.20;;
78871;SDS011;68247;43.514;1.502;2024-02-21T14:03:53;4.20;;;2.20;;
78871;SDS011;68247;43.514;1.502;2024-02-21T14:06:19;4.53;;;2.17;;
78871;SDS011;68247;43.514;1.502;2024-02-21T14:08:44;5.00;;;2.30;;
78871;SDS011;68247;43.514;1.502;2024-02-21T14:11:10;3.83;;;2.27;;
78871;SDS011;68247;43.514;1.502;2024-02-21T14:13:35;3.22;;;2.03;;
78871;SDS011;68247;43.514;1.502;2024-02-21T14:16:01;4.10;;;2.10;;
78871;SDS011;68247;43.514;1.502;2024-02-21T14:18:26;4.60;;;2.30;;
78871;SDS011;68247;43.514;1.502;2024-02-21T14:20:52;4.20;;;2.17;;
78871;SDS011;68247;43.514;1.502;2024-02-21T14:23:18;5.80;;;1.90;;
78871;SDS011;68247;43.514;1.502;2024-02-21T14:25:43;3.87;;;1.83;;
78871;SDS011;68247;43.514;1.502;2024-02-21T14:28:08;4.20;;;2.13;;
78871;SDS011;68247;43.514;1.502;2024-02-21T14:30:34;4.93;;;2.10;;
78871;SDS011;68247;43.514;1.502;2024-02-21T14:33:00;4.40;;;1.95;;
78871;SDS011;68247;43.514;1.502;2024-02-21T14:35:25;9.23;;;2.10;;
78871;SDS011;68247;43.514;1.502;2024-02-21T14:37:51;5.13;;;1.97;;
78871;SDS011;68247;43.514;1.502;2024-02-21T14:40:18;4.15;;;1.80;;